Trout Creek, Michigan
Current Conditions -  °F | °C
As of 2:15 AM on Friday 31 Oct 2014 (Local Time) from KLNL Reporting Station
Light Snow Light Snow  
Wind Chill: 19°   Ceiling: 1500
Heat Index: 31°   Visibility: 4mi
Dew Point: 28°   Wind: 17mph
Humidity: 88%   Direction: 350°N
Pressure: 30.13"   Gusts: 30mph
Location:  46.48°N, 89.01°W
Report Text: KLNL 310615Z AUTO 35015G26KT 4SM -SN BKN015 OVC024 M01/M02 A3013 RMK AO2 T10061023
Loading
Personal Weather Stations






























Interactive Weather Map
Tropical Storm Tracking
New forecast layout! Learn more

10-Day Weather Forecast

Advertisements
Track Severe Weather on mobile